Time;durP1;ratioP1;P1;durP2;ratioP2;P2;SDS_P1;SDS_P2;PMS_P1;PMS_P2;Temp;Humidity;BMP_temperature;BMP_pressure;BME280_temperature;BME280_humidity;BME280_pressure;Samples;Min_cycle;Max_cycle;Signal;HPM_P1;HPM_P2
2021/08/03 00:02:04;;;;;;;3.92;1.83;;;;;;;;;;4993870;28;20061;-59
2021/08/03 00:04:42;;;;;;;8.25;2.13;;;;;;;;;;4980267;28;20037;-59
2021/08/03 00:07:11;;;;;;;4.53;1.95;;;;;;;;;;4976583;28;20049;-59
2021/08/03 00:09:40;;;;;;;4.28;2.20;;;;;;;;;;4981784;28;20121;-59
2021/08/03 00:12:07;;;;;;;4.57;1.90;;;;;;;;;;4979436;28;20045;-59
2021/08/03 00:14:35;;;;;;;4.45;2.63;;;;;;;;;;4978707;28;20022;-60
2021/08/03 00:17:01;;;;;;;3.42;2.05;;;;;;;;;;4980955;28;20038;-59
2021/08/03 00:19:26;;;;;;;3.10;2.10;;;;;;;;;;4977490;28;20026;-60
2021/08/03 00:21:55;;;;;;;6.85;2.05;;;;;;;;;;4993991;28;20511;-60
2021/08/03 00:24:29;;;;;;;5.40;1.92;;;;;;;;;;4981627;28;20995;-59
2021/08/03 00:26:54;;;;;;;3.73;2.07;;;;;;;;;;4975916;28;20052;-59
2021/08/03 00:29:20;;;;;;;4.55;2.03;;;;;;;;;;4980198;28;20034;-60
2021/08/03 00:31:50;;;;;;;5.90;2.20;;;;;;;;;;4990936;28;20379;-59
2021/08/03 00:34:17;;;;;;;3.45;1.95;;;;;;;;;;4979946;28;20034;-59
2021/08/03 00:36:45;;;;;;;4.03;1.77;;;;;;;;;;4978715;28;20038;-59
2021/08/03 00:39:12;;;;;;;4.68;2.50;;;;;;;;;;4992737;28;20084;-59
2021/08/03 00:41:42;;;;;;;2.95;1.92;;;;;;;;;;4991439;28;20072;-59
2021/08/03 00:44:10;;;;;;;4.30;2.35;;;;;;;;;;4977813;28;20046;-60
2021/08/03 00:46:36;;;;;;;6.53;1.88;;;;;;;;;;4989674;28;20022;-59
2021/08/03 00:49:02;;;;;;;3.28;2.20;;;;;;;;;;4976760;28;20036;-59
2021/08/03 00:51:29;;;;;;;4.55;2.22;;;;;;;;;;4976998;28;20128;-59
2021/08/03 00:53:54;;;;;;;3.63;1.80;;;;;;;;;;4992931;28;20034;-59
2021/08/03 00:56:20;;;;;;;9.50;2.17;;;;;;;;;;4959216;28;20661;-59
2021/08/03 00:58:48;;;;;;;2.50;1.60;;;;;;;;;;4973954;28;20046;-59
2021/08/03 01:01:16;;;;;;;3.38;1.55;;;;;;;;;;4978785;28;20050;-60
2021/08/03 01:03:44;;;;;;;8.32;2.25;;;;;;;;;;4978522;28;20128;-59
2021/08/03 01:06:34;;;;;;;7.45;2.10;;;;;;;;;;4979986;28;20041;-59
2021/08/03 01:09:14;;;;;;;3.40;2.67;;;;;;;;;;4993459;28;20113;-60
2021/08/03 01:11:50;;;;;;;10.68;2.00;;;;;;;;;;4979357;28;20371;-60
2021/08/03 01:14:20;;;;;;;5.13;2.58;;;;;;;;;;4978083;28;20035;-60
2021/08/03 01:17:00;;;;;;;6.00;2.35;;;;;;;;;;4979405;28;20022;-59
2021/08/03 01:19:35;;;;;;;6.10;2.50;;;;;;;;;;4993645;28;20034;-59
2021/08/03 01:22:11;;;;;;;4.70;2.03;;;;;;;;;;4982543;28;20115;-59
2021/08/03 01:24:58;;;;;;;3.72;1.92;;;;;;;;;;4979122;28;20038;-59
2021/08/03 01:27:29;;;;;;;3.00;1.95;;;;;;;;;;4979504;28;21803;-59
2021/08/03 01:29:57;;;;;;;4.22;2.00;;;;;;;;;;4980166;28;20060;-59
2021/08/03 01:32:31;;;;;;;7.57;2.13;;;;;;;;;;4974233;28;20033;-59
2021/08/03 01:35:00;;;;;;;3.67;2.15;;;;;;;;;;4985988;28;20811;-59
2021/08/03 01:37:30;;;;;;;4.68;2.10;;;;;;;;;;4980650;28;20034;-58
2021/08/03 01:39:56;;;;;;;3.67;2.08;;;;;;;;;;4979414;28;20050;-58
2021/08/03 01:42:25;;;;;;;3.97;1.95;;;;;;;;;;4992165;28;20029;-58
2021/08/03 01:44:58;;;;;;;7.88;1.90;;;;;;;;;;4978822;28;20025;-58
2021/08/03 01:47:24;;;;;;;7.57;2.05;;;;;;;;;;4978461;28;20045;-58
2021/08/03 01:49:53;;;;;;;3.40;2.30;;;;;;;;;;4978955;28;20038;-58
2021/08/03 01:52:20;;;;;;;3.42;2.15;;;;;;;;;;4978404;28;20037;-59
2021/08/03 01:54:51;;;;;;;9.38;2.20;;;;;;;;;;4993579;28;20076;-59
2021/08/03 01:57:19;;;;;;;3.72;2.13;;;;;;;;;;4991705;28;20141;-59
2021/08/03 01:59:45;;;;;;;3.45;2.17;;;;;;;;;;4992826;28;20165;-59
2021/08/03 02:02:11;;;;;;;4.47;2.42;;;;;;;;;;4994423;28;20159;-59
2021/08/03 02:04:37;;;;;;;3.55;2.28;;;;;;;;;;4991719;28;20033;-59
2021/08/03 02:07:03;;;;;;;6.63;2.50;;;;;;;;;;4977585;28;21428;-60
2021/08/03 02:09:30;;;;;;;3.17;2.40;;;;;;;;;;4993659;28;20128;-59
2021/08/03 02:11:55;;;;;;;3.53;2.40;;;;;;;;;;4979062;28;20064;-59
2021/08/03 02:14:21;;;;;;;10.88;2.47;;;;;;;;;;4991934;28;20038;-59
2021/08/03 02:16:50;;;;;;;3.58;2.15;;;;;;;;;;4995338;28;20033;-59
2021/08/03 02:19:15;;;;;;;5.30;2.53;;;;;;;;;;4978813;28;20110;-59
2021/08/03 02:21:45;;;;;;;4.45;2.58;;;;;;;;;;4983654;28;20026;-59
2021/08/03 02:24:10;;;;;;;5.13;2.60;;;;;;;;;;4978542;28;20038;-58
2021/08/03 02:26:41;;;;;;;5.45;2.35;;;;;;;;;;4978206;28;20044;-59
2021/08/03 02:29:12;;;;;;;2.83;2.03;;;;;;;;;;4983385;28;20037;-59
2021/08/03 02:31:44;;;;;;;4.75;2.70;;;;;;;;;;4983097;28;20504;-59
2021/08/03 02:34:15;;;;;;;3.15;2.47;;;;;;;;;;4992407;28;20026;-59
2021/08/03 02:36:46;;;;;;;3.35;2.25;;;;;;;;;;4978102;28;20041;-59
2021/08/03 02:39:15;;;;;;;5.25;2.13;;;;;;;;;;4960530;28;20052;-59
2021/08/03 02:41:42;;;;;;;4.10;2.42;;;;;;;;;;4976140;28;20026;-59
2021/08/03 02:44:08;;;;;;;5.07;2.42;;;;;;;;;;4990555;28;20367;-59
2021/08/03 02:46:41;;;;;;;3.22;2.50;;;;;;;;;;4980321;28;20033;-59
2021/08/03 02:49:11;;;;;;;4.32;2.28;;;;;;;;;;4978439;28;20184;-59
2021/08/03 02:51:38;;;;;;;8.20;2.35;;;;;;;;;;4976891;28;22010;-59
2021/08/03 02:54:29;;;;;;;6.85;2.75;;;;;;;;;;4975461;28;20014;-59
2021/08/03 02:56:56;;;;;;;6.45;3.03;;;;;;;;;;4993291;28;20121;-59
2021/08/03 02:59:23;;;;;;;4.47;2.45;;;;;;;;;;4979469;28;20038;-59
2021/08/03 03:01:56;;;;;;;3.50;2.45;;;;;;;;;;4980990;28;20030;-58
2021/08/03 03:04:23;;;;;;;9.43;2.95;;;;;;;;;;4986878;28;20050;-59
2021/08/03 03:07:04;;;;;;;3.05;2.17;;;;;;;;;;4979951;28;20034;-59
2021/08/03 03:09:32;;;;;;;4.85;2.42;;;;;;;;;;4969917;28;20168;-59
2021/08/03 03:12:01;;;;;;;5.28;2.75;;;;;;;;;;4982951;28;20041;-59
2021/08/03 03:14:27;;;;;;;6.10;2.33;;;;;;;;;;4978959;28;20025;-59
2021/08/03 03:16:56;;;;;;;5.47;2.67;;;;;;;;;;4982046;28;20022;-58
2021/08/03 03:19:22;;;;;;;3.17;2.30;;;;;;;;;;4983658;28;20076;-58
2021/08/03 03:21:49;;;;;;;9.02;3.13;;;;;;;;;;4981957;28;20071;-59
2021/08/03 03:24:16;;;;;;;5.60;2.08;;;;;;;;;;4981689;28;20040;-59
2021/08/03 03:26:43;;;;;;;5.85;2.05;;;;;;;;;;4993530;28;20038;-59
2021/08/03 03:29:11;;;;;;;5.07;2.67;;;;;;;;;;4982486;28;20026;-59
2021/08/03 03:31:37;;;;;;;5.65;2.33;;;;;;;;;;4980652;28;20096;-59
2021/08/03 03:34:05;;;;;;;4.15;2.70;;;;;;;;;;4981721;28;20033;-59
2021/08/03 03:36:31;;;;;;;7.18;2.50;;;;;;;;;;4981589;28;20022;-59
2021/08/03 03:39:00;;;;;;;8.52;2.45;;;;;;;;;;4980984;28;20026;-59
2021/08/03 03:41:30;;;;;;;2.75;1.80;;;;;;;;;;4997321;28;20033;-59
2021/08/03 03:43:58;;;;;;;9.25;2.45;;;;;;;;;;4972909;28;20057;-58
2021/08/03 03:46:28;;;;;;;3.60;2.33;;;;;;;;;;4982714;28;20959;-58
2021/08/03 03:49:00;;;;;;;2.47;2.03;;;;;;;;;;4986145;28;20046;-58
2021/08/03 03:51:27;;;;;;;5.45;2.35;;;;;;;;;;4996758;28;20030;-59
2021/08/03 03:54:01;;;;;;;4.75;2.17;;;;;;;;;;4988653;28;20018;-59
2021/08/03 03:56:31;;;;;;;4.22;2.40;;;;;;;;;;4982015;28;20050;-59
2021/08/03 03:59:05;;;;;;;6.65;2.22;;;;;;;;;;4980052;28;20049;-59
2021/08/03 04:01:30;;;;;;;8.70;2.43;;;;;;;;;;4983958;28;20052;-61
2021/08/03 04:04:00;;;;;;;3.05;2.13;;;;;;;;;;4981025;28;20812;-59
2021/08/03 04:06:26;;;;;;;6.20;2.58;;;;;;;;;;4982311;28;20030;-62
2021/08/03 04:08:54;;;;;;;4.10;2.58;;;;;;;;;;4980057;28;20030;-67
2021/08/03 04:11:22;;;;;;;3.67;2.47;;;;;;;;;;4978029;28;20046;-60
2021/08/03 04:13:49;;;;;;;4.10;2.13;;;;;;;;;;4978154;28;20034;-59
2021/08/03 04:16:17;;;;;;;5.80;2.42;;;;;;;;;;4986886;28;20046;-59
2021/08/03 04:18:42;;;;;;;3.80;2.33;;;;;;;;;;4981075;28;20050;-59
2021/08/03 04:21:11;;;;;;;5.78;2.80;;;;;;;;;;4987857;28;20038;-59
2021/08/03 04:23:36;;;;;;;2.65;2.08;;;;;;;;;;4988515;28;20045;-59
2021/08/03 04:26:06;;;;;;;4.82;2.45;;;;;;;;;;4993060;28;20038;-60
2021/08/03 04:28:34;;;;;;;4.72;2.63;;;;;;;;;;4976847;28;20133;-60
2021/08/03 04:31:00;;;;;;;4.40;2.45;;;;;;;;;;4976622;28;20032;-60
2021/08/03 04:33:28;;;;;;;5.03;2.78;;;;;;;;;;4994222;28;20038;-60
2021/08/03 04:35:55;;;;;;;4.25;2.40;;;;;;;;;;4962336;28;20095;-60
2021/08/03 04:38:21;;;;;;;5.38;1.90;;;;;;;;;;4995484;28;20072;-59
2021/08/03 04:40:48;;;;;;;4.43;2.20;;;;;;;;;;4977601;28;20102;-60
2021/08/03 04:43:14;;;;;;;4.70;1.88;;;;;;;;;;4976937;28;21314;-59
2021/08/03 04:45:41;;;;;;;4.20;2.70;;;;;;;;;;4980791;28;20034;-60
2021/08/03 04:48:07;;;;;;;4.18;2.40;;;;;;;;;;4991827;28;20033;-60
2021/08/03 04:50:33;;;;;;;7.93;2.05;;;;;;;;;;4979984;28;20034;-59
2021/08/03 04:52:58;;;;;;;3.55;1.92;;;;;;;;;;4979451;28;20042;-59
2021/08/03 04:55:26;;;;;;;4.47;2.42;;;;;;;;;;4992814;28;20026;-60
2021/08/03 04:57:51;;;;;;;4.95;2.42;;;;;;;;;;4978843;28;20043;-59
2021/08/03 05:00:17;;;;;;;4.57;2.50;;;;;;;;;;4981331;28;20032;-59
2021/08/03 05:02:43;;;;;;;3.97;2.63;;;;;;;;;;4979732;28;20485;-59
2021/08/03 05:05:12;;;;;;;4.22;2.30;;;;;;;;;;4981698;28;20026;-59
2021/08/03 05:07:40;;;;;;;3.78;2.70;;;;;;;;;;4993095;28;20037;-59
2021/08/03 05:10:09;;;;;;;6.72;2.35;;;;;;;;;;4980737;28;20466;-59
2021/08/03 05:12:35;;;;;;;4.35;2.15;;;;;;;;;;4979884;28;20033;-59
2021/08/03 05:15:06;;;;;;;5.30;2.50;;;;;;;;;;4980050;28;20033;-60
2021/08/03 05:17:32;;;;;;;3.72;2.33;;;;;;;;;;4992968;28;20135;-59
2021/08/03 05:20:00;;;;;;;5.10;2.30;;;;;;;;;;4980279;28;20026;-59
2021/08/03 05:22:26;;;;;;;3.97;2.53;;;;;;;;;;4982759;28;20049;-60
2021/08/03 05:24:51;;;;;;;5.43;2.30;;;;;;;;;;4968410;28;20067;-60
2021/08/03 05:27:20;;;;;;;4.68;2.47;;;;;;;;;;4988403;28;20034;-60
2021/08/03 05:29:47;;;;;;;7.28;2.53;;;;;;;;;;4983053;28;20129;-59
2021/08/03 05:32:13;;;;;;;2.97;1.98;;;;;;;;;;4984445;28;20096;-59
2021/08/03 05:34:40;;;;;;;7.70;2.40;;;;;;;;;;4994780;28;20038;-60
2021/08/03 05:37:06;;;;;;;11.82;2.03;;;;;;;;;;4978099;28;20799;-59
2021/08/03 05:39:34;;;;;;;2.65;2.05;;;;;;;;;;4960510;28;20084;-60
2021/08/03 05:42:00;;;;;;;7.25;2.25;;;;;;;;;;4993025;28;20038;-59
2021/08/03 05:44:28;;;;;;;3.58;2.20;;;;;;;;;;4995299;28;20029;-59
2021/08/03 05:46:59;;;;;;;5.72;2.25;;;;;;;;;;4982488;28;20038;-60
2021/08/03 05:49:27;;;;;;;10.15;1.73;;;;;;;;;;4980250;28;20038;-59
2021/08/03 05:51:55;;;;;;;3.20;1.60;;;;;;;;;;4978708;28;20025;-60
2021/08/03 05:54:21;;;;;;;3.10;2.00;;;;;;;;;;4994011;28;20144;-60
2021/08/03 05:56:49;;;;;;;5.40;1.85;;;;;;;;;;4993198;28;20458;-60
2021/08/03 05:59:15;;;;;;;3.60;1.63;;;;;;;;;;4979028;28;20159;-59
2021/08/03 06:01:43;;;;;;;2.42;1.65;;;;;;;;;;4992283;28;20035;-60
2021/08/03 06:04:10;;;;;;;3.58;1.75;;;;;;;;;;4981224;28;20062;-60
2021/08/03 06:06:39;;;;;;;2.03;1.52;;;;;;;;;;4979898;28;20220;-60
2021/08/03 06:09:10;;;;;;;5.07;1.40;;;;;;;;;;4992786;28;20126;-60
2021/08/03 06:11:50;;;;;;;5.13;1.58;;;;;;;;;;4978212;28;20039;-60
2021/08/03 06:14:21;;;;;;;1.85;1.45;;;;;;;;;;4979619;28;20423;-59
2021/08/03 06:16:53;;;;;;;6.03;1.48;;;;;;;;;;4978377;28;20030;-60
2021/08/03 06:19:25;;;;;;;4.95;1.85;;;;;;;;;;4978559;28;20033;-60
2021/08/03 06:21:50;;;;;;;4.88;1.38;;;;;;;;;;4976587;28;20049;-60
2021/08/03 06:24:16;;;;;;;5.22;1.67;;;;;;;;;;4963951;28;20080;-60
2021/08/03 06:26:43;;;;;;;5.03;1.38;;;;;;;;;;4980772;28;20030;-60
2021/08/03 06:29:11;;;;;;;3.08;1.15;;;;;;;;;;4980091;28;20084;-60
2021/08/03 06:31:41;;;;;;;2.67;1.48;;;;;;;;;;4991848;28;20153;-60
2021/08/03 06:34:08;;;;;;;1.42;1.33;;;;;;;;;;4977580;28;20026;-60
2021/08/03 06:36:33;;;;;;;3.38;1.40;;;;;;;;;;4994933;28;20077;-59
2021/08/03 06:39:06;;;;;;;2.78;1.20;;;;;;;;;;4983851;28;20034;-60
2021/08/03 06:41:38;;;;;;;2.88;1.42;;;;;;;;;;4997298;28;20034;-59
2021/08/03 06:44:08;;;;;;;6.15;1.70;;;;;;;;;;4997474;28;20504;-60
2021/08/03 06:46:43;;;;;;;4.03;1.35;;;;;;;;;;4998308;28;20042;-59
2021/08/03 06:49:13;;;;;;;4.55;1.58;;;;;;;;;;4978786;28;20034;-60
2021/08/03 06:51:41;;;;;;;11.77;1.58;;;;;;;;;;4996960;28;20261;-61
2021/08/03 06:54:11;;;;;;;1.42;0.73;;;;;;;;;;4981897;28;20025;-61
2021/08/03 06:56:44;;;;;;;3.45;1.50;;;;;;;;;;4983895;28;20037;-61
2021/08/03 06:59:12;;;;;;;5.65;1.60;;;;;;;;;;4981398;28;20044;-61
2021/08/03 07:01:50;;;;;;;2.20;1.10;;;;;;;;;;4982983;28;20125;-61
2021/08/03 07:04:31;;;;;;;5.70;1.02;;;;;;;;;;4982221;28;20034;-62
2021/08/03 07:06:59;;;;;;;2.88;1.10;;;;;;;;;;4981902;28;20462;-61
2021/08/03 07:09:24;;;;;;;2.20;0.80;;;;;;;;;;4985631;28;20026;-59
2021/08/03 07:11:54;;;;;;;3.33;1.20;;;;;;;;;;4979441;28;20760;-61
2021/08/03 07:14:25;;;;;;;2.08;0.88;;;;;;;;;;4971454;28;20022;-61
2021/08/03 07:16:57;;;;;;;2.08;0.90;;;;;;;;;;4982819;28;20084;-60
2021/08/03 07:19:23;;;;;;;2.35;0.90;;;;;;;;;;4981189;28;20477;-61
2021/08/03 07:21:52;;;;;;;1.58;0.90;;;;;;;;;;4977210;28;20568;-60
2021/08/03 07:24:19;;;;;;;5.63;0.95;;;;;;;;;;4982203;28;20035;-61
2021/08/03 07:26:45;;;;;;;2.85;1.00;;;;;;;;;;4982796;28;20129;-61
2021/08/03 07:29:11;;;;;;;3.42;0.70;;;;;;;;;;4995730;28;20073;-60
2021/08/03 07:31:42;;;;;;;1.33;0.75;;;;;;;;;;4981678;28;20064;-60
2021/08/03 07:34:10;;;;;;;1.13;0.65;;;;;;;;;;4962643;28;20030;-61
2021/08/03 07:36:38;;;;;;;4.05;0.70;;;;;;;;;;4980729;28;20046;-61
2021/08/03 07:39:04;;;;;;;4.15;0.77;;;;;;;;;;4993907;28;20557;-61
2021/08/03 07:41:33;;;;;;;0.98;0.82;;;;;;;;;;4979239;28;20208;-61
2021/08/03 07:44:06;;;;;;;0.98;0.60;;;;;;;;;;4978131;28;20077;-60
2021/08/03 07:46:37;;;;;;;1.30;0.80;;;;;;;;;;4984223;28;20045;-61
2021/08/03 07:49:05;;;;;;;0.93;0.60;;;;;;;;;;4981461;28;20026;-61
2021/08/03 07:51:36;;;;;;;1.45;0.70;;;;;;;;;;4992791;28;20034;-61
2021/08/03 07:54:11;;;;;;;3.58;1.10;;;;;;;;;;4981044;28;20701;-60
2021/08/03 07:56:41;;;;;;;2.20;0.70;;;;;;;;;;4982753;28;20029;-61
2021/08/03 07:59:07;;;;;;;1.55;0.40;;;;;;;;;;4982139;28;20050;-60
2021/08/03 08:01:39;;;;;;;3.95;0.43;;;;;;;;;;4981166;28;20049;-61
2021/08/03 08:04:04;;;;;;;1.58;0.47;;;;;;;;;;4982197;28;20038;-60
2021/08/03 08:06:33;;;;;;;0.47;0.30;;;;;;;;;;4979765;28;21075;-61
2021/08/03 08:09:01;;;;;;;1.70;0.38;;;;;;;;;;4981669;28;20054;-61
2021/08/03 08:11:29;;;;;;;0.80;0.30;;;;;;;;;;4980466;28;20490;-60
2021/08/03 08:13:57;;;;;;;1.00;0.50;;;;;;;;;;4978485;28;20038;-60
2021/08/03 08:16:25;;;;;;;2.58;0.55;;;;;;;;;;4985983;28;20034;-61
2021/08/03 08:18:50;;;;;;;1.15;0.50;;;;;;;;;;4981103;28;20029;-61
2021/08/03 08:21:16;;;;;;;2.03;0.50;;;;;;;;;;4980661;28;20052;-62
2021/08/03 08:23:46;;;;;;;1.20;0.30;;;;;;;;;;4995457;28;20785;-62
2021/08/03 08:26:12;;;;;;;0.60;0.22;;;;;;;;;;4987185;28;20030;-62
2021/08/03 08:28:37;;;;;;;1.35;0.55;;;;;;;;;;4993149;28;20054;-62
2021/08/03 08:31:07;;;;;;;2.63;0.40;;;;;;;;;;4980543;28;20806;-62
2021/08/03 08:33:38;;;;;;;2.45;0.32;;;;;;;;;;4994627;28;20034;-62
2021/08/03 08:36:09;;;;;;;3.40;0.40;;;;;;;;;;4993855;28;20498;-61
2021/08/03 08:38:37;;;;;;;3.33;0.73;;;;;;;;;;4994812;28;20472;-61
2021/08/03 08:41:06;;;;;;;8.20;1.10;;;;;;;;;;4978077;28;20030;-61
2021/08/03 08:43:34;;;;;;;3.25;0.63;;;;;;;;;;4982274;28;20086;-61
2021/08/03 08:45:59;;;;;;;9.65;1.15;;;;;;;;;;4955248;28;20053;-61
2021/08/03 08:48:28;;;;;;;3.72;0.43;;;;;;;;;;4994196;28;20117;-61
2021/08/03 08:50:54;;;;;;;0.60;0.45;;;;;;;;;;4994664;28;20038;-61
2021/08/03 08:53:24;;;;;;;3.25;0.77;;;;;;;;;;4979996;28;20033;-61
2021/08/03 08:55:50;;;;;;;2.25;0.50;;;;;;;;;;4983236;28;20561;-61
2021/08/03 08:58:17;;;;;;;2.17;0.40;;;;;;;;;;4979227;28;20053;-61
2021/08/03 09:00:45;;;;;;;5.10;0.70;;;;;;;;;;4993048;28;20171;-61
2021/08/03 09:03:14;;;;;;;9.68;1.13;;;;;;;;;;4992650;28;20052;-61
2021/08/03 09:05:41;;;;;;;3.50;0.50;;;;;;;;;;4981331;28;20474;-61
2021/08/03 09:08:10;;;;;;;9.25;0.95;;;;;;;;;;4975695;28;20121;-61
2021/08/03 09:10:40;;;;;;;1.45;0.40;;;;;;;;;;4994515;28;20061;-61
2021/08/03 09:13:16;;;;;;;2.65;0.50;;;;;;;;;;4976319;28;20145;-60
2021/08/03 09:15:46;;;;;;;1.33;0.57;;;;;;;;;;4980045;28;21787;-61
2021/08/03 09:18:16;;;;;;;2.33;0.65;;;;;;;;;;4985096;28;20971;-61
2021/08/03 09:20:43;;;;;;;4.40;0.73;;;;;;;;;;4963900;28;20042;-61
2021/08/03 09:23:10;;;;;;;1.23;0.38;;;;;;;;;;4977660;28;20137;-60
2021/08/03 09:25:50;;;;;;;2.55;0.55;;;;;;;;;;4978164;28;20131;-61
2021/08/03 09:28:15;;;;;;;1.75;0.50;;;;;;;;;;4982863;28;20048;-61
2021/08/03 09:30:45;;;;;;;1.38;0.60;;;;;;;;;;4979644;28;20058;-61
2021/08/03 09:33:20;;;;;;;0.60;0.30;;;;;;;;;;4994650;28;20042;-61
2021/08/03 09:35:45;;;;;;;;;;;;;;;;;;4981052;28;20029;-61
2021/08/03 09:38:14;;;;;;;2.43;0.67;;;;;;;;;;4977858;28;19968;-62
2021/08/03 09:40:40;;;;;;;1.65;0.63;;;;;;;;;;4979299;28;20284;-62
2021/08/03 09:43:06;;;;;;;4.13;0.55;;;;;;;;;;4991564;28;20037;-61
2021/08/03 09:45:44;;;;;;;0.52;0.40;;;;;;;;;;4981227;28;20033;-61
2021/08/03 09:48:13;;;;;;;0.73;0.47;;;;;;;;;;4992622;28;20632;-61
2021/08/03 09:50:51;;;;;;;2.65;0.52;;;;;;;;;;4979978;28;20031;-61
2021/08/03 09:53:54;;;;;;;2.63;0.75;;;;;;;;;;4979677;28;20061;-61
2021/08/03 09:56:28;;;;;;;2.85;0.68;;;;;;;;;;4960530;28;20066;-62
2021/08/03 09:58:55;;;;;;;0.25;0.25;;;;;;;;;;4977394;28;22073;-62
2021/08/03 10:01:29;;;;;;;3.13;0.38;;;;;;;;;;4992608;28;20042;-61
2021/08/03 10:03:55;;;;;;;0.30;0.20;;;;;;;;;;4993812;28;20022;-61
2021/08/03 10:06:23;;;;;;;0.85;0.47;;;;;;;;;;4979588;28;20029;-62
2021/08/03 10:08:49;;;;;;;1.80;0.40;;;;;;;;;;4978276;28;22201;-60
2021/08/03 10:11:18;;;;;;;0.30;0.30;;;;;;;;;;4977524;28;20640;-62
2021/08/03 10:13:49;;;;;;;1.73;0.45;;;;;;;;;;4978488;28;20125;-62
2021/08/03 10:16:15;;;;;;;1.08;0.50;;;;;;;;;;4977266;28;20040;-62
2021/08/03 10:18:48;;;;;;;1.52;0.30;;;;;;;;;;4978434;28;20556;-61
2021/08/03 10:21:22;;;;;;;0.98;0.30;;;;;;;;;;4983133;28;20034;-62
2021/08/03 10:23:49;;;;;;;1.98;0.40;;;;;;;;;;4990725;28;20088;-63
2021/08/03 10:26:17;;;;;;;2.70;0.28;;;;;;;;;;4978085;28;20045;-62
2021/08/03 10:28:44;;;;;;;7.43;0.93;;;;;;;;;;4978414;28;20516;-61
2021/08/03 10:31:31;;;;;;;1.20;0.35;;;;;;;;;;4959422;28;20552;-62
2021/08/03 10:33:56;;;;;;;;;;;;;;;;;;4977660;28;20037;-62
2021/08/03 10:36:51;;;;;;;1.15;0.40;;;;;;;;;;4980063;28;20499;-62
2021/08/03 10:39:18;;;;;;;1.00;0.32;;;;;;;;;;4975552;28;20678;-62
2021/08/03 10:42:08;;;;;;;1.85;0.30;;;;;;;;;;4977635;28;20030;-62
2021/08/03 10:44:42;;;;;;;1.65;0.47;;;;;;;;;;4962646;28;20038;-63
2021/08/03 10:47:28;;;;;;;1.25;0.45;;;;;;;;;;4978465;28;20113;-63
2021/08/03 10:49:55;;;;;;;1.65;0.38;;;;;;;;;;4979289;28;20033;-62
2021/08/03 10:52:39;;;;;;;0.25;0.20;;;;;;;;;;4978403;28;20033;-62
2021/08/03 10:55:10;;;;;;;0.90;0.40;;;;;;;;;;4977808;28;20068;-62
2021/08/03 10:57:35;;;;;;;0.45;0.20;;;;;;;;;;4992111;28;20105;-62
2021/08/03 11:00:03;;;;;;;0.60;0.40;;;;;;;;;;4992102;28;20038;-63
2021/08/03 11:02:34;;;;;;;0.28;0.20;;;;;;;;;;4980548;28;20202;-63
2021/08/03 11:05:00;;;;;;;1.85;0.50;;;;;;;;;;4994388;28;20046;-63
2021/08/03 11:07:32;;;;;;;0.38;0.28;;;;;;;;;;4977185;28;20019;-63
2021/08/03 11:10:20;;;;;;;0.20;0.13;;;;;;;;;;4978001;28;20033;-63
2021/08/03 11:12:48;;;;;;;2.63;0.50;;;;;;;;;;4992902;28;21941;-63
2021/08/03 11:15:22;;;;;;;0.70;0.40;;;;;;;;;;4975549;28;22087;-63
2021/08/03 11:17:53;;;;;;;1.95;0.22;;;;;;;;;;4976344;28;20026;-63
2021/08/03 11:20:37;;;;;;;0.25;0.13;;;;;;;;;;4979799;28;20030;-64
2021/08/03 11:23:07;;;;;;;0.20;0.20;;;;;;;;;;4978997;28;20053;-62
2021/08/03 11:25:32;;;;;;;1.33;0.40;;;;;;;;;;4983909;28;20022;-62
2021/08/03 11:28:08;;;;;;;0.25;0.25;;;;;;;;;;4985992;28;20041;-62
2021/08/03 11:30:38;;;;;;;1.98;0.15;;;;;;;;;;4995598;28;20548;-63
2021/08/03 11:33:06;;;;;;;1.83;0.43;;;;;;;;;;4996827;28;20050;-63
2021/08/03 11:35:32;;;;;;;0.73;0.30;;;;;;;;;;4986224;28;20027;-63
2021/08/03 11:38:04;;;;;;;0.63;0.50;;;;;;;;;;4980539;28;20038;-63
2021/08/03 11:40:29;;;;;;;0.80;0.40;;;;;;;;;;4985520;28;20035;-63
2021/08/03 11:43:00;;;;;;;0.93;0.52;;;;;;;;;;4994210;28;20085;-63
2021/08/03 11:45:26;;;;;;;1.40;0.30;;;;;;;;;;4997945;28;20100;-63
2021/08/03 11:47:51;;;;;;;0.82;0.52;;;;;;;;;;4995634;28;20782;-62
2021/08/03 11:50:26;;;;;;;1.20;0.30;;;;;;;;;;4980140;28;20056;-63
2021/08/03 11:52:52;;;;;;;1.88;0.40;;;;;;;;;;4960410;28;20053;-62
2021/08/03 11:55:17;;;;;;;1.95;0.50;;;;;;;;;;4994322;28;20443;-63
2021/08/03 11:57:43;;;;;;;0.20;0.15;;;;;;;;;;4980399;28;20049;-64
2021/08/03 12:00:11;;;;;;;0.90;0.38;;;;;;;;;;4981361;28;20042;-64
2021/08/03 12:02:39;;;;;;;0.50;0.30;;;;;;;;;;4980672;28;20390;-64
2021/08/03 12:05:13;;;;;;;1.20;0.30;;;;;;;;;;4995580;28;20386;-65
2021/08/03 12:07:41;;;;;;;1.13;0.35;;;;;;;;;;4978667;28;20033;-65
2021/08/03 12:10:09;;;;;;;1.80;0.47;;;;;;;;;;4981254;28;20030;-63
2021/08/03 12:12:36;;;;;;;1.17;0.80;;;;;;;;;;4993831;28;20636;-63
2021/08/03 12:15:05;;;;;;;1.08;0.30;;;;;;;;;;4981365;28;20034;-63
2021/08/03 12:17:33;;;;;;;1.13;0.38;;;;;;;;;;4983370;28;20033;-62
2021/08/03 12:20:05;;;;;;;0.52;0.30;;;;;;;;;;4977917;28;20470;-63
2021/08/03 12:22:34;;;;;;;0.20;0.15;;;;;;;;;;4981149;28;20550;-62
2021/08/03 12:25:00;;;;;;;0.47;0.45;;;;;;;;;;4980283;28;20034;-62
2021/08/03 12:27:36;;;;;;;0.68;0.30;;;;;;;;;;4980503;28;20019;-62
2021/08/03 12:30:05;;;;;;;0.82;0.40;;;;;;;;;;4980084;28;20759;-62
2021/08/03 12:32:36;;;;;;;0.30;0.28;;;;;;;;;;4981221;28;20101;-64
2021/08/03 12:35:08;;;;;;;0.63;0.40;;;;;;;;;;4984585;28;20033;-63
2021/08/03 12:37:35;;;;;;;2.92;0.30;;;;;;;;;;4980021;28;20041;-63
2021/08/03 12:40:02;;;;;;;0.30;0.30;;;;;;;;;;4995381;28;20038;-63
2021/08/03 12:42:47;;;;;;;1.10;0.40;;;;;;;;;;4986071;28;20111;-63
2021/08/03 12:45:13;;;;;;;0.43;0.30;;;;;;;;;;4981675;28;20030;-63
2021/08/03 12:47:57;;;;;;;0.50;0.50;;;;;;;;;;4980862;28;20036;-63
2021/08/03 12:50:23;;;;;;;0.65;0.40;;;;;;;;;;4993515;28;20030;-63
2021/08/03 12:52:57;;;;;;;2.17;0.52;;;;;;;;;;4976232;28;20037;-62
2021/08/03 12:55:51;;;;;;;0.32;0.20;;;;;;;;;;4980515;28;20145;-63
2021/08/03 12:58:40;;;;;;;1.02;0.43;;;;;;;;;;4979186;28;20702;-63
2021/08/03 13:01:25;;;;;;;0.47;0.30;;;;;;;;;;4993756;28;20045;-61
2021/08/03 13:03:53;;;;;;;0.70;0.28;;;;;;;;;;4980319;28;20039;-62
2021/08/03 13:06:20;;;;;;;1.77;0.25;;;;;;;;;;4980490;28;20552;-63
2021/08/03 13:08:51;;;;;;;0.20;0.20;;;;;;;;;;4992808;28;20939;-62
2021/08/03 13:11:16;;;;;;;0.57;0.38;;;;;;;;;;4985306;28;20037;-61
2021/08/03 13:13:42;;;;;;;0.50;0.37;;;;;;;;;;4980941;28;20026;-61
2021/08/03 13:16:07;;;;;;;0.47;0.30;;;;;;;;;;4980585;28;20300;-62
2021/08/03 13:18:38;;;;;;;1.27;0.60;;;;;;;;;;4984172;28;20036;-61
2021/08/03 13:21:03;;;;;;;1.02;0.50;;;;;;;;;;4980216;28;20520;-61
2021/08/03 13:23:31;;;;;;;0.20;0.20;;;;;;;;;;4978277;28;20026;-61
2021/08/03 13:26:01;;;;;;;2.10;0.22;;;;;;;;;;4983200;28;22108;-61
2021/08/03 13:28:27;;;;;;;1.45;0.73;;;;;;;;;;4991144;28;20179;-61
2021/08/03 13:30:56;;;;;;;0.68;0.40;;;;;;;;;;4980971;28;20042;-62
2021/08/03 13:33:22;;;;;;;0.30;0.30;;;;;;;;;;4992419;28;22756;-62
2021/08/03 13:35:50;;;;;;;0.45;0.32;;;;;;;;;;4980503;28;20037;-62
2021/08/03 13:38:20;;;;;;;0.85;0.50;;;;;;;;;;4990797;28;20091;-62
2021/08/03 13:40:46;;;;;;;1.55;0.45;;;;;;;;;;4980463;28;20133;-62
2021/08/03 13:43:14;;;;;;;1.65;0.28;;;;;;;;;;4968459;28;20030;-61
2021/08/03 13:45:42;;;;;;;3.63;0.70;;;;;;;;;;4978859;28;20038;-61
2021/08/03 13:48:08;;;;;;;0.47;0.40;;;;;;;;;;4978910;28;20065;-62
2021/08/03 13:50:36;;;;;;;0.77;0.43;;;;;;;;;;4980663;28;20055;-62
2021/08/03 13:53:02;;;;;;;3.08;0.50;;;;;;;;;;4976692;28;20868;-62
2021/08/03 13:55:28;;;;;;;0.77;0.30;;;;;;;;;;4983986;28;20022;-61
2021/08/03 13:57:56;;;;;;;1.20;0.50;;;;;;;;;;4979292;28;20054;-61
2021/08/03 14:00:22;;;;;;;1.05;0.40;;;;;;;;;;4974886;28;21476;-61
2021/08/03 14:02:47;;;;;;;0.50;0.30;;;;;;;;;;4969757;28;20047;-62
2021/08/03 14:05:13;;;;;;;5.38;0.40;;;;;;;;;;4992757;28;20417;-61
2021/08/03 14:07:38;;;;;;;0.60;0.35;;;;;;;;;;4992258;28;21025;-61
2021/08/03 14:10:05;;;;;;;0.55;0.35;;;;;;;;;;4978402;28;20172;-61
2021/08/03 14:12:30;;;;;;;2.30;0.50;;;;;;;;;;4978644;28;20025;-61
2021/08/03 14:14:56;;;;;;;1.67;0.40;;;;;;;;;;4976621;28;20030;-60
2021/08/03 14:17:24;;;;;;;0.98;0.45;;;;;;;;;;4992580;28;20092;-61
2021/08/03 14:19:49;;;;;;;1.55;0.68;;;;;;;;;;4977166;28;20030;-62
2021/08/03 14:22:17;;;;;;;0.50;0.25;;;;;;;;;;4979149;28;20036;-61
2021/08/03 14:24:45;;;;;;;0.40;0.30;;;;;;;;;;4978205;28;20042;-62
2021/08/03 14:27:15;;;;;;;0.68;0.63;;;;;;;;;;4979288;28;20056;-61
2021/08/03 14:29:41;;;;;;;1.67;0.50;;;;;;;;;;4979103;28;20074;-60
2021/08/03 14:32:11;;;;;;;1.65;0.50;;;;;;;;;;4979216;28;20026;-61
2021/08/03 14:34:36;;;;;;;2.33;0.38;;;;;;;;;;4982417;28;20053;-61
2021/08/03 14:37:04;;;;;;;1.15;0.50;;;;;;;;;;4990639;28;20043;-61
2021/08/03 14:39:32;;;;;;;1.67;0.60;;;;;;;;;;4992282;28;20031;-62
2021/08/03 14:42:01;;;;;;;1.58;0.40;;;;;;;;;;4984032;28;20034;-62
2021/08/03 14:44:26;;;;;;;0.40;0.40;;;;;;;;;;4989805;28;20160;-61
2021/08/03 14:46:54;;;;;;;0.70;0.40;;;;;;;;;;4985177;28;20391;-62
2021/08/03 14:49:22;;;;;;;0.55;0.40;;;;;;;;;;4990807;28;20053;-61
2021/08/03 14:51:48;;;;;;;1.73;0.70;;;;;;;;;;4991068;28;20260;-61
2021/08/03 14:54:14;;;;;;;0.65;0.30;;;;;;;;;;4990535;28;20026;-61
2021/08/03 14:56:40;;;;;;;0.30;0.30;;;;;;;;;;4995313;28;20081;-62